sensor_id;sensor_type;location;lat;lon;timestamp;noise_LAeq;noise_LA_min;noise_LA_max;noise_LA01;noise_LA95
72805;Laerm;60920;48.748;19.142;2023-09-12T00:00:58;31.01;29.57;32.27;;
72805;Laerm;60920;48.748;19.142;2023-09-12T00:03:30;30.97;29.42;32.32;;
72805;Laerm;60920;48.748;19.142;2023-09-12T00:05:56;30.99;29.72;32.22;;
72805;Laerm;60920;48.748;19.142;2023-09-12T00:08:22;31.00;29.79;32.28;;
72805;Laerm;60920;48.748;19.142;2023-09-12T00:10:57;31.01;29.33;32.27;;
72805;Laerm;60920;48.748;19.142;2023-09-12T00:13:23;31.03;29.80;32.31;;
72805;Laerm;60920;48.748;19.142;2023-09-12T00:15:48;31.09;29.82;32.37;;
72805;Laerm;60920;48.748;19.142;2023-09-12T00:18:13;31.08;29.63;32.30;;
72805;Laerm;60920;48.748;19.142;2023-09-12T00:20:38;31.03;29.66;32.26;;
72805;Laerm;60920;48.748;19.142;2023-09-12T00:23:04;30.99;29.64;32.40;;
72805;Laerm;60920;48.748;19.142;2023-09-12T00:25:30;31.02;29.46;32.31;;
72805;Laerm;60920;48.748;19.142;2023-09-12T00:27:55;31.06;29.45;32.33;;
72805;Laerm;60920;48.748;19.142;2023-09-12T00:30:20;31.08;29.63;32.33;;
72805;Laerm;60920;48.748;19.142;2023-09-12T00:32:46;31.11;29.67;32.47;;
72805;Laerm;60920;48.748;19.142;2023-09-12T00:35:11;31.13;29.87;32.39;;
72805;Laerm;60920;48.748;19.142;2023-09-12T00:37:37;31.14;29.33;32.41;;
72805;Laerm;60920;48.748;19.142;2023-09-12T00:40:02;31.19;29.68;32.50;;
72805;Laerm;60920;48.748;19.142;2023-09-12T00:42:27;31.14;29.96;32.30;;
72805;Laerm;60920;48.748;19.142;2023-09-12T00:44:53;31.15;29.82;32.35;;
72805;Laerm;60920;48.748;19.142;2023-09-12T00:47:18;31.18;29.68;32.39;;
72805;Laerm;60920;48.748;19.142;2023-09-12T00:49:44;31.17;29.76;32.43;;
72805;Laerm;60920;48.748;19.142;2023-09-12T00:52:10;31.17;29.80;32.44;;
72805;Laerm;60920;48.748;19.142;2023-09-12T00:54:37;31.18;29.89;32.59;;
72805;Laerm;60920;48.748;19.142;2023-09-12T00:57:03;31.18;29.92;32.44;;
72805;Laerm;60920;48.748;19.142;2023-09-12T00:59:28;31.15;29.57;32.33;;
72805;Laerm;60920;48.748;19.142;2023-09-12T01:01:53;31.18;30.03;32.57;;
72805;Laerm;60920;48.748;19.142;2023-09-12T01:04:19;31.21;29.77;32.55;;
72805;Laerm;60920;48.748;19.142;2023-09-12T01:06:45;31.21;29.90;32.48;;
72805;Laerm;60920;48.748;19.142;2023-09-12T01:09:11;31.30;30.02;32.54;;
72805;Laerm;60920;48.748;19.142;2023-09-12T01:11:37;31.22;30.02;32.44;;
72805;Laerm;60920;48.748;19.142;2023-09-12T01:14:03;31.19;29.70;32.47;;
72805;Laerm;60920;48.748;19.142;2023-09-12T01:16:28;31.19;29.96;32.57;;
72805;Laerm;60920;48.748;19.142;2023-09-12T01:18:53;31.27;29.88;32.47;;
72805;Laerm;60920;48.748;19.142;2023-09-12T01:28:53;31.20;29.88;32.49;;
72805;Laerm;60920;48.748;19.142;2023-09-12T01:31:19;31.21;29.86;32.68;;
72805;Laerm;60920;48.748;19.142;2023-09-12T01:33:45;31.18;29.88;32.64;;
72805;Laerm;60920;48.748;19.142;2023-09-12T01:36:10;31.20;29.97;32.37;;
72805;Laerm;60920;48.748;19.142;2023-09-12T01:38:36;31.21;29.85;32.36;;
72805;Laerm;60920;48.748;19.142;2023-09-12T01:41:01;31.24;29.88;32.57;;
72805;Laerm;60920;48.748;19.142;2023-09-12T01:43:27;31.28;29.95;32.76;;
72805;Laerm;60920;48.748;19.142;2023-09-12T01:45:53;31.30;29.83;32.54;;
72805;Laerm;60920;48.748;19.142;2023-09-12T01:48:19;31.26;29.83;32.58;;
72805;Laerm;60920;48.748;19.142;2023-09-12T01:50:46;31.23;29.90;32.67;;
72805;Laerm;60920;48.748;19.142;2023-09-12T01:53:12;31.33;29.91;32.72;;
72805;Laerm;60920;48.748;19.142;2023-09-12T01:55:39;31.27;30.12;32.53;;
72805;Laerm;60920;48.748;19.142;2023-09-12T01:58:04;31.28;29.91;32.43;;
72805;Laerm;60920;48.748;19.142;2023-09-12T02:00:30;31.30;29.96;32.49;;
72805;Laerm;60920;48.748;19.142;2023-09-12T02:02:55;31.32;29.89;32.63;;
72805;Laerm;60920;48.748;19.142;2023-09-12T02:05:21;31.32;30.01;32.53;;
72805;Laerm;60920;48.748;19.142;2023-09-12T02:07:47;31.33;30.02;32.79;;
72805;Laerm;60920;48.748;19.142;2023-09-12T02:10:12;31.36;29.89;32.58;;
72805;Laerm;60920;48.748;19.142;2023-09-12T02:12:38;31.43;30.02;33.00;;
72805;Laerm;60920;48.748;19.142;2023-09-12T02:15:04;31.36;29.82;32.69;;
72805;Laerm;60920;48.748;19.142;2023-09-12T02:17:29;31.34;29.88;32.69;;
72805;Laerm;60920;48.748;19.142;2023-09-12T02:19:54;31.36;29.90;32.65;;
72805;Laerm;60920;48.748;19.142;2023-09-12T02:22:20;31.36;30.10;32.77;;
72805;Laerm;60920;48.748;19.142;2023-09-12T02:24:45;31.36;30.05;32.70;;
72805;Laerm;60920;48.748;19.142;2023-09-12T02:27:10;31.37;30.10;32.84;;
72805;Laerm;60920;48.748;19.142;2023-09-12T02:29:37;31.42;30.03;32.90;;
72805;Laerm;60920;48.748;19.142;2023-09-12T02:32:02;31.42;30.15;32.73;;
72805;Laerm;60920;48.748;19.142;2023-09-12T02:34:28;31.47;29.71;33.02;;
72805;Laerm;60920;48.748;19.142;2023-09-12T02:36:53;31.48;29.80;33.14;;
72805;Laerm;60920;48.748;19.142;2023-09-12T02:39:18;31.45;30.10;32.68;;
72805;Laerm;60920;48.748;19.142;2023-09-12T02:41:44;31.46;29.58;32.67;;
72805;Laerm;60920;48.748;19.142;2023-09-12T02:44:09;31.49;30.27;32.73;;
72805;Laerm;60920;48.748;19.142;2023-09-12T02:46:35;31.49;30.16;32.83;;
72805;Laerm;60920;48.748;19.142;2023-09-12T02:49:01;31.49;30.29;32.71;;
72805;Laerm;60920;48.748;19.142;2023-09-12T02:51:26;31.51;30.10;33.11;;
72805;Laerm;60920;48.748;19.142;2023-09-12T02:53:52;31.52;29.99;33.02;;
72805;Laerm;60920;48.748;19.142;2023-09-12T02:56:17;31.57;30.39;32.85;;
72805;Laerm;60920;48.748;19.142;2023-09-12T02:58:45;31.55;30.19;32.76;;
72805;Laerm;60920;48.748;19.142;2023-09-12T03:01:14;31.56;30.13;32.94;;
72805;Laerm;60920;48.748;19.142;2023-09-12T03:03:39;31.60;30.26;32.75;;
72805;Laerm;60920;48.748;19.142;2023-09-12T03:06:04;31.53;30.11;32.59;;
72805;Laerm;60920;48.748;19.142;2023-09-12T03:08:30;31.51;29.98;32.71;;
72805;Laerm;60920;48.748;19.142;2023-09-12T03:10:55;31.52;30.10;32.82;;
72805;Laerm;60920;48.748;19.142;2023-09-12T03:13:22;31.52;30.02;32.78;;
72805;Laerm;60920;48.748;19.142;2023-09-12T03:15:47;31.59;30.09;32.92;;
72805;Laerm;60920;48.748;19.142;2023-09-12T03:18:12;31.58;30.06;32.89;;
72805;Laerm;60920;48.748;19.142;2023-09-12T03:20:38;31.55;30.04;32.78;;
72805;Laerm;60920;48.748;19.142;2023-09-12T03:23:03;31.53;30.15;32.66;;
72805;Laerm;60920;48.748;19.142;2023-09-12T03:25:29;31.51;30.10;32.83;;
72805;Laerm;60920;48.748;19.142;2023-09-12T03:27:54;31.55;30.28;32.75;;
72805;Laerm;60920;48.748;19.142;2023-09-12T03:30:20;31.56;30.29;32.90;;
72805;Laerm;60920;48.748;19.142;2023-09-12T03:32:45;31.59;30.26;32.84;;
72805;Laerm;60920;48.748;19.142;2023-09-12T03:35:10;31.60;30.26;32.90;;
72805;Laerm;60920;48.748;19.142;2023-09-12T03:37:36;31.59;30.25;32.87;;
72805;Laerm;60920;48.748;19.142;2023-09-12T03:40:05;31.59;30.29;32.80;;
72805;Laerm;60920;48.748;19.142;2023-09-12T03:42:30;31.63;30.20;32.96;;
72805;Laerm;60920;48.748;19.142;2023-09-12T03:44:56;31.60;30.39;33.31;;
72805;Laerm;60920;48.748;19.142;2023-09-12T03:47:21;31.64;30.46;32.92;;
72805;Laerm;60920;48.748;19.142;2023-09-12T03:49:46;31.65;30.31;33.08;;
72805;Laerm;60920;48.748;19.142;2023-09-12T03:52:12;31.65;30.35;32.99;;
72805;Laerm;60920;48.748;19.142;2023-09-12T03:54:37;31.67;30.46;33.12;;
72805;Laerm;60920;48.748;19.142;2023-09-12T03:57:03;31.68;30.24;33.20;;
72805;Laerm;60920;48.748;19.142;2023-09-12T03:59:28;31.66;30.47;32.88;;
72805;Laerm;60920;48.748;19.142;2023-09-12T04:01:53;31.67;30.32;32.91;;
72805;Laerm;60920;48.748;19.142;2023-09-12T04:04:19;31.68;30.29;33.12;;
72805;Laerm;60920;48.748;19.142;2023-09-12T04:06:44;31.69;30.34;32.97;;
72805;Laerm;60920;48.748;19.142;2023-09-12T04:09:09;31.80;30.50;33.09;;
72805;Laerm;60920;48.748;19.142;2023-09-12T04:11:35;31.71;30.14;32.98;;
72805;Laerm;60920;48.748;19.142;2023-09-12T04:14:00;31.68;30.47;32.91;;
72805;Laerm;60920;48.748;19.142;2023-09-12T04:16:25;31.69;30.26;32.97;;
72805;Laerm;60920;48.748;19.142;2023-09-12T04:18:50;31.73;30.07;32.90;;
72805;Laerm;60920;48.748;19.142;2023-09-12T04:21:16;31.82;30.32;33.14;;
72805;Laerm;60920;48.748;19.142;2023-09-12T04:23:41;31.79;30.47;33.16;;
72805;Laerm;60920;48.748;19.142;2023-09-12T04:26:06;31.71;30.33;32.98;;
72805;Laerm;60920;48.748;19.142;2023-09-12T04:28:32;31.69;30.33;33.02;;
72805;Laerm;60920;48.748;19.142;2023-09-12T04:31:00;31.75;30.47;33.00;;
72805;Laerm;60920;48.748;19.142;2023-09-12T04:33:26;31.75;30.36;33.03;;
72805;Laerm;60920;48.748;19.142;2023-09-12T04:35:51;31.81;30.47;33.07;;
72805;Laerm;60920;48.748;19.142;2023-09-12T04:38:16;31.81;30.44;33.06;;
72805;Laerm;60920;48.748;19.142;2023-09-12T04:40:42;31.73;30.12;33.29;;
72805;Laerm;60920;48.748;19.142;2023-09-12T04:43:07;31.69;30.22;33.14;;
72805;Laerm;60920;48.748;19.142;2023-09-12T04:45:33;31.76;30.33;33.06;;
72805;Laerm;60920;48.748;19.142;2023-09-12T04:47:59;31.80;30.17;33.20;;
72805;Laerm;60920;48.748;19.142;2023-09-12T04:50:24;31.76;30.57;33.02;;
72805;Laerm;60920;48.748;19.142;2023-09-12T04:52:49;31.68;30.30;32.88;;
72805;Laerm;60920;48.748;19.142;2023-09-12T04:55:14;31.71;30.23;32.95;;
72805;Laerm;60920;48.748;19.142;2023-09-12T04:57:40;31.74;30.42;32.93;;
72805;Laerm;60920;48.748;19.142;2023-09-12T05:00:05;31.68;30.33;32.92;;
72805;Laerm;60920;48.748;19.142;2023-09-12T05:02:31;31.67;30.39;32.78;;
72805;Laerm;60920;48.748;19.142;2023-09-12T05:04:56;31.69;30.19;33.00;;
72805;Laerm;60920;48.748;19.142;2023-09-12T05:07:22;31.71;30.40;33.07;;
72805;Laerm;60920;48.748;19.142;2023-09-12T05:09:48;31.72;29.97;32.83;;
72805;Laerm;60920;48.748;19.142;2023-09-12T05:12:13;31.73;30.39;32.90;;
72805;Laerm;60920;48.748;19.142;2023-09-12T05:14:38;31.71;30.25;33.07;;
72805;Laerm;60920;48.748;19.142;2023-09-12T05:17:04;31.68;30.24;32.88;;
72805;Laerm;60920;48.748;19.142;2023-09-12T05:19:29;31.67;30.39;32.94;;
72805;Laerm;60920;48.748;19.142;2023-09-12T05:21:55;31.69;30.24;32.93;;
72805;Laerm;60920;48.748;19.142;2023-09-12T05:24:20;31.69;30.29;33.08;;
72805;Laerm;60920;48.748;19.142;2023-09-12T05:26:46;31.67;30.13;33.00;;
72805;Laerm;60920;48.748;19.142;2023-09-12T05:29:12;31.63;30.11;33.25;;
72805;Laerm;60920;48.748;19.142;2023-09-12T05:31:38;31.57;30.09;32.90;;
72805;Laerm;60920;48.748;19.142;2023-09-12T05:34:03;31.59;30.23;32.74;;
72805;Laerm;60920;48.748;19.142;2023-09-12T05:36:28;31.52;30.23;33.00;;
72805;Laerm;60920;48.748;19.142;2023-09-12T05:38:54;31.50;30.03;32.72;;
72805;Laerm;60920;48.748;19.142;2023-09-12T05:41:19;31.47;30.10;32.76;;
72805;Laerm;60920;48.748;19.142;2023-09-12T05:43:44;31.41;30.20;32.87;;
72805;Laerm;60920;48.748;19.142;2023-09-12T05:46:10;31.34;29.92;32.54;;
72805;Laerm;60920;48.748;19.142;2023-09-12T05:48:35;31.35;30.14;32.80;;
72805;Laerm;60920;48.748;19.142;2023-09-12T05:51:00;31.32;29.92;32.42;;
72805;Laerm;60920;48.748;19.142;2023-09-12T05:53:25;31.33;29.85;32.77;;
72805;Laerm;60920;48.748;19.142;2023-09-12T05:55:51;31.28;29.86;32.61;;
72805;Laerm;60920;48.748;19.142;2023-09-12T05:58:16;31.22;29.92;32.57;;
72805;Laerm;60920;48.748;19.142;2023-09-12T06:00:41;31.23;29.62;33.00;;
72805;Laerm;60920;48.748;19.142;2023-09-12T06:03:06;31.18;29.93;32.40;;
72805;Laerm;60920;48.748;19.142;2023-09-12T06:05:32;31.12;29.77;32.92;;
72805;Laerm;60920;48.748;19.142;2023-09-12T06:07:57;31.07;29.41;32.33;;
72805;Laerm;60920;48.748;19.142;2023-09-12T06:10:23;31.05;29.79;32.23;;
72805;Laerm;60920;48.748;19.142;2023-09-12T06:12:48;31.04;29.49;32.49;;
72805;Laerm;60920;48.748;19.142;2023-09-12T06:15:14;30.98;29.48;32.29;;
72805;Laerm;60920;48.748;19.142;2023-09-12T06:17:40;30.95;29.50;32.20;;
72805;Laerm;60920;48.748;19.142;2023-09-12T06:20:05;30.93;29.52;32.25;;
72805;Laerm;60920;48.748;19.142;2023-09-12T06:22:31;30.90;29.33;32.10;;
72805;Laerm;60920;48.748;19.142;2023-09-12T06:24:56;30.90;29.49;32.32;;
72805;Laerm;60920;48.748;19.142;2023-09-12T06:27:22;30.87;29.30;32.15;;
72805;Laerm;60920;48.748;19.142;2023-09-12T06:29:47;30.91;29.61;32.18;;
72805;Laerm;60920;48.748;19.142;2023-09-12T06:32:17;30.85;29.47;32.07;;
72805;Laerm;60920;48.748;19.142;2023-09-12T06:34:42;30.82;29.67;32.14;;
72805;Laerm;60920;48.748;19.142;2023-09-12T06:37:08;30.77;29.49;32.14;;
72805;Laerm;60920;48.748;19.142;2023-09-12T06:39:33;30.76;29.24;32.20;;
72805;Laerm;60920;48.748;19.142;2023-09-12T06:41:58;30.71;29.35;31.91;;
72805;Laerm;60920;48.748;19.142;2023-09-12T06:44:23;30.69;29.26;32.01;;
72805;Laerm;60920;48.748;19.142;2023-09-12T06:46:49;30.68;29.38;31.97;;
72805;Laerm;60920;48.748;19.142;2023-09-12T06:49:14;30.64;29.38;31.81;;
72805;Laerm;60920;48.748;19.142;2023-09-12T06:51:39;30.61;29.14;31.90;;
72805;Laerm;60920;48.748;19.142;2023-09-12T06:54:05;30.58;29.32;32.03;;
72805;Laerm;60920;48.748;19.142;2023-09-12T06:56:30;30.53;28.95;31.99;;
72805;Laerm;60920;48.748;19.142;2023-09-12T06:58:55;30.56;29.03;31.75;;
72805;Laerm;60920;48.748;19.142;2023-09-12T07:01:21;30.53;29.26;31.90;;
72805;Laerm;60920;48.748;19.142;2023-09-12T07:03:46;30.52;29.22;31.86;;
72805;Laerm;60920;48.748;19.142;2023-09-12T07:06:11;30.45;29.09;31.67;;
72805;Laerm;60920;48.748;19.142;2023-09-12T07:08:37;30.34;29.03;31.52;;
72805;Laerm;60920;48.748;19.142;2023-09-12T07:11:03;30.29;28.96;31.38;;
72805;Laerm;60920;48.748;19.142;2023-09-12T07:13:31;30.27;28.77;31.40;;
72805;Laerm;60920;48.748;19.142;2023-09-12T07:15:57;30.26;28.76;34.52;;
72805;Laerm;60920;48.748;19.142;2023-09-12T07:18:22;30.29;29.00;31.64;;
72805;Laerm;60920;48.748;19.142;2023-09-12T07:20:56;30.29;29.15;31.60;;
72805;Laerm;60920;48.748;19.142;2023-09-12T07:23:21;30.20;28.99;31.39;;
72805;Laerm;60920;48.748;19.142;2023-09-12T07:25:47;30.22;28.92;31.49;;
72805;Laerm;60920;48.748;19.142;2023-09-12T07:28:13;30.19;28.85;31.42;;
72805;Laerm;60920;48.748;19.142;2023-09-12T07:30:39;30.10;28.75;31.59;;
72805;Laerm;60920;48.748;19.142;2023-09-12T07:33:05;30.13;28.83;31.50;;
72805;Laerm;60920;48.748;19.142;2023-09-12T07:35:30;30.10;28.62;31.32;;
72805;Laerm;60920;48.748;19.142;2023-09-12T07:37:56;30.13;28.71;31.31;;
72805;Laerm;60920;48.748;19.142;2023-09-12T07:40:21;30.11;28.96;31.37;;
72805;Laerm;60920;48.748;19.142;2023-09-12T07:42:46;30.08;28.71;32.65;;
72805;Laerm;60920;48.748;19.142;2023-09-12T07:45:12;30.04;28.62;31.44;;
72805;Laerm;60920;48.748;19.142;2023-09-12T07:47:38;30.04;28.63;31.28;;
72805;Laerm;60920;48.748;19.142;2023-09-12T07:50:04;30.02;28.67;31.37;;
72805;Laerm;60920;48.748;19.142;2023-09-12T07:52:31;30.07;28.59;31.30;;
72805;Laerm;60920;48.748;19.142;2023-09-12T07:55:00;30.04;28.82;31.35;;
72805;Laerm;60920;48.748;19.142;2023-09-12T07:57:25;30.05;28.71;31.42;;
72805;Laerm;60920;48.748;19.142;2023-09-12T07:59:51;30.05;28.78;31.30;;
72805;Laerm;60920;48.748;19.142;2023-09-12T08:02:16;30.08;28.34;31.52;;
72805;Laerm;60920;48.748;19.142;2023-09-12T08:04:41;30.00;28.66;31.45;;
72805;Laerm;60920;48.748;19.142;2023-09-12T08:07:06;30.04;28.66;31.29;;
72805;Laerm;60920;48.748;19.142;2023-09-12T08:09:48;30.02;28.70;31.14;;
72805;Laerm;60920;48.748;19.142;2023-09-12T08:12:13;30.04;28.67;32.44;;
72805;Laerm;60920;48.748;19.142;2023-09-12T08:14:39;30.07;28.83;31.36;;
72805;Laerm;60920;48.748;19.142;2023-09-12T08:17:04;30.05;28.82;31.28;;
72805;Laerm;60920;48.748;19.142;2023-09-12T08:19:29;30.07;28.41;33.34;;
72805;Laerm;60920;48.748;19.142;2023-09-12T08:21:55;30.08;28.58;35.84;;
72805;Laerm;60920;48.748;19.142;2023-09-12T08:24:20;30.01;28.65;31.31;;
72805;Laerm;60920;48.748;19.142;2023-09-12T08:26:45;30.05;28.65;36.19;;
72805;Laerm;60920;48.748;19.142;2023-09-12T08:29:10;30.10;28.55;32.31;;
72805;Laerm;60920;48.748;19.142;2023-09-12T08:31:36;30.10;28.82;36.19;;
72805;Laerm;60920;48.748;19.142;2023-09-12T08:34:02;30.06;28.79;31.41;;
72805;Laerm;60920;48.748;19.142;2023-09-12T08:36:27;30.04;28.67;34.23;;
72805;Laerm;60920;48.748;19.142;2023-09-12T08:38:52;30.13;28.89;34.60;;
72805;Laerm;60920;48.748;19.142;2023-09-12T08:41:17;30.14;28.64;44.16;;
72805;Laerm;60920;48.748;19.142;2023-09-12T08:43:43;30.13;28.51;31.46;;
72805;Laerm;60920;48.748;19.142;2023-09-12T08:46:09;30.07;28.64;31.44;;
72805;Laerm;60920;48.748;19.142;2023-09-12T08:48:35;30.12;28.93;37.38;;
72805;Laerm;60920;48.748;19.142;2023-09-12T08:51:02;30.13;28.76;36.80;;
72805;Laerm;60920;48.748;19.142;2023-09-12T08:53:29;30.29;28.60;40.24;;
72805;Laerm;60920;48.748;19.142;2023-09-12T08:55:54;30.23;28.91;44.76;;
72805;Laerm;60920;48.748;19.142;2023-09-12T08:58:20;30.55;28.76;40.71;;
72805;Laerm;60920;48.748;19.142;2023-09-12T09:00:46;30.24;28.80;37.44;;
72805;Laerm;60920;48.748;19.142;2023-09-12T09:03:11;30.11;28.85;31.41;;
72805;Laerm;60920;48.748;19.142;2023-09-12T09:05:37;30.09;28.95;31.30;;
72805;Laerm;60920;48.748;19.142;2023-09-12T09:08:04;30.12;28.58;31.42;;
72805;Laerm;60920;48.748;19.142;2023-09-12T09:10:30;30.41;28.63;48.52;;
72805;Laerm;60920;48.748;19.142;2023-09-12T09:12:57;30.16;28.72;42.98;;
72805;Laerm;60920;48.748;19.142;2023-09-12T09:17:52;30.14;28.79;31.68;;
72805;Laerm;60920;48.748;19.142;2023-09-12T09:23:02;30.09;28.74;31.65;;
72805;Laerm;60920;48.748;19.142;2023-09-12T09:25:31;29.87;28.03;31.17;;
72805;Laerm;60920;48.748;19.142;2023-09-12T09:27:57;29.88;28.52;31.96;;
72805;Laerm;60920;48.748;19.142;2023-09-12T09:30:38;29.66;28.07;34.91;;
72805;Laerm;60920;48.748;19.142;2023-09-12T09:33:04;29.32;27.77;31.94;;
72805;Laerm;60920;48.748;19.142;2023-09-12T09:35:29;29.13;27.61;30.55;;
72805;Laerm;60920;48.748;19.142;2023-09-12T09:37:55;29.05;27.28;32.04;;
72805;Laerm;60920;48.748;19.142;2023-09-12T09:40:21;29.01;27.59;33.47;;
72805;Laerm;60920;48.748;19.142;2023-09-12T09:42:47;28.87;27.40;30.47;;
72805;Laerm;60920;48.748;19.142;2023-09-12T09:45:18;28.88;27.61;31.25;;
72805;Laerm;60920;48.748;19.142;2023-09-12T09:47:43;28.81;27.14;30.37;;
72805;Laerm;60920;48.748;19.142;2023-09-12T09:50:09;28.83;27.46;30.15;;
72805;Laerm;60920;48.748;19.142;2023-09-12T09:52:38;28.81;27.33;30.90;;
72805;Laerm;60920;48.748;19.142;2023-09-12T09:55:06;28.65;26.98;30.37;;
72805;Laerm;60920;48.748;19.142;2023-09-12T09:57:36;28.65;27.19;31.30;;
72805;Laerm;60920;48.748;19.142;2023-09-12T10:00:01;28.50;27.16;29.77;;
72805;Laerm;60920;48.748;19.142;2023-09-12T10:02:32;28.43;27.17;30.09;;
72805;Laerm;60920;48.748;19.142;2023-09-12T10:04:58;28.85;26.92;39.45;;
72805;Laerm;60920;48.748;19.142;2023-09-12T10:07:24;28.54;27.17;32.29;;
72805;Laerm;60920;48.748;19.142;2023-09-12T10:09:49;28.58;27.00;30.34;;
72805;Laerm;60920;48.748;19.142;2023-09-12T10:12:15;28.62;27.08;29.92;;
72805;Laerm;60920;48.748;19.142;2023-09-12T10:14:41;28.72;27.41;30.21;;
72805;Laerm;60920;48.748;19.142;2023-09-12T10:17:08;28.68;27.26;30.12;;
72805;Laerm;60920;48.748;19.142;2023-09-12T10:19:38;28.63;27.15;29.99;;
72805;Laerm;60920;48.748;19.142;2023-09-12T10:24:45;28.73;27.19;30.36;;
72805;Laerm;60920;48.748;19.142;2023-09-12T10:27:11;28.97;27.59;31.80;;
72805;Laerm;60920;48.748;19.142;2023-09-12T10:29:37;28.97;27.59;31.41;;
72805;Laerm;60920;48.748;19.142;2023-09-12T10:32:02;28.92;27.57;30.44;;
72805;Laerm;60920;48.748;19.142;2023-09-12T10:34:28;28.95;27.53;30.38;;
72805;Laerm;60920;48.748;19.142;2023-09-12T10:36:55;29.06;27.56;32.16;;
72805;Laerm;60920;48.748;19.142;2023-09-12T10:39:22;28.99;27.42;30.99;;
72805;Laerm;60920;48.748;19.142;2023-09-12T10:41:50;29.14;27.74;31.76;;
72805;Laerm;60920;48.748;19.142;2023-09-12T10:44:17;29.01;27.56;30.49;;
72805;Laerm;60920;48.748;19.142;2023-09-12T10:46:43;28.87;27.37;30.39;;
72805;Laerm;60920;48.748;19.142;2023-09-12T10:49:11;29.16;27.52;33.21;;
72805;Laerm;60920;48.748;19.142;2023-09-12T10:51:41;28.88;27.51;30.32;;
72805;Laerm;60920;48.748;19.142;2023-09-12T10:54:06;28.94;27.21;30.55;;
72805;Laerm;60920;48.748;19.142;2023-09-12T10:56:33;28.92;27.53;30.36;;
72805;Laerm;60920;48.748;19.142;2023-09-12T11:01:35;28.75;27.15;30.29;;
72805;Laerm;60920;48.748;19.142;2023-09-12T11:06:44;28.78;27.24;30.27;;
72805;Laerm;60920;48.748;19.142;2023-09-12T11:11:39;28.79;27.57;30.07;;
72805;Laerm;60920;48.748;19.142;2023-09-12T11:14:05;28.75;27.20;30.18;;
72805;Laerm;60920;48.748;19.142;2023-09-12T11:16:30;28.73;27.37;30.40;;
72805;Laerm;60920;48.748;19.142;2023-09-12T11:21:48;29.67;27.37;39.99;;
72805;Laerm;60920;48.748;19.142;2023-09-12T11:24:14;28.75;27.01;30.35;;
72805;Laerm;60920;48.748;19.142;2023-09-12T11:26:59;28.62;27.18;35.21;;
72805;Laerm;60920;48.748;19.142;2023-09-12T11:29:29;28.60;27.13;30.46;;
72805;Laerm;60920;48.748;19.142;2023-09-12T11:31:55;28.52;27.19;30.36;;
72805;Laerm;60920;48.748;19.142;2023-09-12T11:34:24;28.54;27.22;30.22;;
72805;Laerm;60920;48.748;19.142;2023-09-12T11:36:49;28.51;27.14;30.57;;
72805;Laerm;60920;48.748;19.142;2023-09-12T11:39:24;28.47;27.13;29.91;;
72805;Laerm;60920;48.748;19.142;2023-09-12T11:41:50;28.49;27.03;30.09;;
72805;Laerm;60920;48.748;19.142;2023-09-12T11:44:16;28.44;26.87;30.64;;
72805;Laerm;60920;48.748;19.142;2023-09-12T11:46:42;28.48;27.06;30.72;;
72805;Laerm;60920;48.748;19.142;2023-09-12T11:49:08;28.91;26.88;36.66;;
72805;Laerm;60920;48.748;19.142;2023-09-12T11:51:33;28.35;27.12;29.78;;
72805;Laerm;60920;48.748;19.142;2023-09-12T11:53:58;28.39;27.02;30.03;;
72805;Laerm;60920;48.748;19.142;2023-09-12T11:56:25;28.41;27.08;30.87;;
72805;Laerm;60920;48.748;19.142;2023-09-12T11:58:53;28.39;26.93;29.61;;
72805;Laerm;60920;48.748;19.142;2023-09-12T12:01:20;28.47;27.07;30.68;;
72805;Laerm;60920;48.748;19.142;2023-09-12T12:03:45;28.53;27.20;29.99;;
72805;Laerm;60920;48.748;19.142;2023-09-12T12:06:11;28.50;27.02;30.09;;
72805;Laerm;60920;48.748;19.142;2023-09-12T12:08:37;28.52;27.05;29.75;;
72805;Laerm;60920;48.748;19.142;2023-09-12T12:11:02;28.58;27.08;30.55;;
72805;Laerm;60920;48.748;19.142;2023-09-12T12:13:27;28.54;27.10;29.94;;
72805;Laerm;60920;48.748;19.142;2023-09-12T12:15:53;28.68;27.30;33.04;;
72805;Laerm;60920;48.748;19.142;2023-09-12T12:18:18;28.59;27.22;30.00;;
72805;Laerm;60920;48.748;19.142;2023-09-12T12:20:44;28.47;26.95;30.13;;
72805;Laerm;60920;48.748;19.142;2023-09-12T12:23:09;28.58;27.04;30.28;;
72805;Laerm;60920;48.748;19.142;2023-09-12T12:25:35;28.58;27.20;30.29;;
72805;Laerm;60920;48.748;19.142;2023-09-12T12:28:00;28.57;27.09;30.77;;
72805;Laerm;60920;48.748;19.142;2023-09-12T12:30:29;28.41;26.94;29.77;;
72805;Laerm;60920;48.748;19.142;2023-09-12T12:32:55;28.56;27.13;30.19;;
72805;Laerm;60920;48.748;19.142;2023-09-12T12:35:20;28.62;26.97;30.21;;
72805;Laerm;60920;48.748;19.142;2023-09-12T12:37:50;28.67;26.99;30.02;;
72805;Laerm;60920;48.748;19.142;2023-09-12T12:40:17;28.67;27.27;30.27;;
72805;Laerm;60920;48.748;19.142;2023-09-12T12:42:45;28.65;27.17;30.24;;
72805;Laerm;60920;48.748;19.142;2023-09-12T12:45:17;28.64;26.93;30.61;;
72805;Laerm;60920;48.748;19.142;2023-09-12T12:47:44;28.49;27.16;29.71;;
72805;Laerm;60920;48.748;19.142;2023-09-12T12:50:15;28.63;26.96;30.35;;
72805;Laerm;60920;48.748;19.142;2023-09-12T12:52:43;28.72;27.14;30.18;;
72805;Laerm;60920;48.748;19.142;2023-09-12T12:55:11;28.64;27.33;30.36;;
72805;Laerm;60920;48.748;19.142;2023-09-12T12:57:40;28.65;27.30;30.23;;
72805;Laerm;60920;48.748;19.142;2023-09-12T13:00:12;28.59;27.01;30.04;;
72805;Laerm;60920;48.748;19.142;2023-09-12T13:02:43;28.59;27.13;30.36;;
72805;Laerm;60920;48.748;19.142;2023-09-12T13:05:27;28.62;27.09;30.61;;
72805;Laerm;60920;48.748;19.142;2023-09-12T13:07:53;28.54;26.92;30.05;;
72805;Laerm;60920;48.748;19.142;2023-09-12T13:10:19;28.56;27.20;29.91;;
72805;Laerm;60920;48.748;19.142;2023-09-12T13:12:44;28.43;27.01;30.49;;
72805;Laerm;60920;48.748;19.142;2023-09-12T13:15:12;28.55;27.15;31.14;;
72805;Laerm;60920;48.748;19.142;2023-09-12T13:17:38;28.47;26.93;30.30;;
72805;Laerm;60920;48.748;19.142;2023-09-12T13:20:03;28.52;27.09;31.16;;
72805;Laerm;60920;48.748;19.142;2023-09-12T13:22:29;28.58;27.19;32.55;;
72805;Laerm;60920;48.748;19.142;2023-09-12T13:24:54;28.51;27.03;30.05;;
72805;Laerm;60920;48.748;19.142;2023-09-12T13:27:19;28.48;27.22;30.43;;
72805;Laerm;60920;48.748;19.142;2023-09-12T13:29:48;28.44;26.94;30.17;;
72805;Laerm;60920;48.748;19.142;2023-09-12T13:32:31;28.36;26.98;30.14;;
72805;Laerm;60920;48.748;19.142;2023-09-12T13:35:00;28.45;26.96;29.69;;
72805;Laerm;60920;48.748;19.142;2023-09-12T13:37:33;28.44;26.94;30.16;;
72805;Laerm;60920;48.748;19.142;2023-09-12T13:39:58;28.53;27.06;30.38;;
72805;Laerm;60920;48.748;19.142;2023-09-12T13:42:23;28.42;27.13;30.17;;
72805;Laerm;60920;48.748;19.142;2023-09-12T13:44:49;28.49;26.95;30.46;;
72805;Laerm;60920;48.748;19.142;2023-09-12T13:47:15;28.22;26.74;29.68;;
72805;Laerm;60920;48.748;19.142;2023-09-12T13:49:48;28.21;26.95;30.90;;
72805;Laerm;60920;48.748;19.142;2023-09-12T13:52:13;28.18;26.75;31.12;;